createdAt,value
2023-01-17T00:02:07.519Z,-0.00
2023-01-17T00:05:26.836Z,0.07
2023-01-17T00:08:50.721Z,0.16
2023-01-17T00:11:57.866Z,0.18
2023-01-17T00:15:05.152Z,0.10
2023-01-17T00:18:12.106Z,0.06
2023-01-17T00:21:30.497Z,0.08
2023-01-17T00:24:52.122Z,0.21
2023-01-17T00:27:55.287Z,0.24
2023-01-17T00:30:59.536Z,0.40
2023-01-17T00:34:02.653Z,0.27
2023-01-17T00:37:06.717Z,0.23
2023-01-17T00:40:13.330Z,0.37
2023-01-17T00:43:36.283Z,0.38
2023-01-17T00:46:54.745Z,0.42
2023-01-17T00:50:13.963Z,0.36
2023-01-17T00:53:33.586Z,0.25
2023-01-17T00:56:55.331Z,0.40
2023-01-17T01:00:13.983Z,0.66
2023-01-17T01:03:33.256Z,0.90
2023-01-17T01:06:51.835Z,1.10
2023-01-17T01:10:11.059Z,1.13
2023-01-17T01:13:32.160Z,1.16
2023-01-17T01:16:51.791Z,1.24
2023-01-17T01:20:10.256Z,1.07
2023-01-17T01:23:29.718Z,0.80
2023-01-17T01:26:48.079Z,0.78
2023-01-17T01:30:09.948Z,0.92
2023-01-17T01:33:21.236Z,0.73
2023-01-17T01:36:28.246Z,0.69
2023-01-17T01:39:34.446Z,0.63
2023-01-17T01:42:41.435Z,0.52
2023-01-17T01:45:59.452Z,0.56
2023-01-17T01:49:20.959Z,0.47
2023-01-17T01:52:33.915Z,0.54
2023-01-17T01:55:46.290Z,0.61
2023-01-17T01:58:56.148Z,0.68
2023-01-17T02:02:05.940Z,0.72
2023-01-17T02:05:15.594Z,0.58
2023-01-17T02:08:27.127Z,0.46
2023-01-17T02:11:34.976Z,0.52
2023-01-17T02:14:42.470Z,0.31
2023-01-17T02:18:07.988Z,0.38
2023-01-17T02:21:37.785Z,0.29
2023-01-17T02:25:26.643Z,0.26
2023-01-17T02:29:06.025Z,0.13
2023-01-17T02:32:27.421Z,0.21
2023-01-17T02:35:51.089Z,0.21
2023-01-17T02:39:10.014Z,0.11
2023-01-17T02:42:26.831Z,-0.01
2023-01-17T02:45:33.009Z,-0.19
2023-01-17T02:48:43.083Z,-0.26
2023-01-17T02:52:25.867Z,-0.33
2023-01-17T02:55:54.413Z,-0.39
2023-01-17T02:59:22.542Z,-0.38
2023-01-17T03:02:45.742Z,-0.38
2023-01-17T03:06:11.813Z,-0.51
2023-01-17T03:09:21.611Z,-0.46
2023-01-17T03:12:31.926Z,-0.60
2023-01-17T03:15:37.926Z,-0.86
2023-01-17T03:18:45.013Z,-1.05
2023-01-17T03:21:54.164Z,-1.12
2023-01-17T03:25:01.103Z,-1.17
2023-01-17T03:28:07.739Z,-1.16
2023-01-17T03:31:18.395Z,-1.25
2023-01-17T03:34:24.388Z,-1.32
2023-01-17T03:37:33.929Z,-1.38
2023-01-17T03:40:40.005Z,-1.42
2023-01-17T03:43:46.919Z,-1.51
2023-01-17T03:46:53.017Z,-1.51
2023-01-17T03:49:59.870Z,-1.52
2023-01-17T03:53:08.539Z,-1.60
2023-01-17T03:56:15.737Z,-1.51
2023-01-17T03:59:21.880Z,-1.74
2023-01-17T04:02:28.917Z,-1.69
2023-01-17T04:05:35.059Z,-1.85
2023-01-17T04:08:44.679Z,-1.85
2023-01-17T04:11:53.536Z,-1.87
2023-01-17T04:15:00.425Z,-1.76
2023-01-17T04:18:09.411Z,-1.81
2023-01-17T04:21:16.307Z,-1.71
2023-01-17T04:24:25.145Z,-1.70
2023-01-17T04:27:31.927Z,-1.61
2023-01-17T04:30:38.018Z,-1.52
2023-01-17T04:33:44.919Z,-1.41
2023-01-17T04:36:50.940Z,-1.22
2023-01-17T04:40:00.481Z,-1.06
2023-01-17T04:43:06.544Z,-0.91
2023-01-17T04:46:13.480Z,-0.80
2023-01-17T04:49:19.741Z,-0.71
2023-01-17T04:52:26.680Z,-0.65
2023-01-17T04:55:35.431Z,-0.63
2023-01-17T04:58:42.477Z,-0.60
2023-01-17T05:01:50.738Z,-0.54
2023-01-17T05:04:57.614Z,-0.47
2023-01-17T05:08:03.750Z,-0.54
2023-01-17T05:11:13.236Z,-0.54
2023-01-17T05:14:19.350Z,-0.62
2023-01-17T05:17:27.073Z,-0.52
2023-01-17T05:20:34.475Z,-0.46
2023-01-17T05:23:42.911Z,-0.37
2023-01-17T05:26:54.943Z,-0.43
2023-01-17T05:30:01.941Z,-0.56
2023-01-17T05:33:09.607Z,-0.60
2023-01-17T05:36:16.524Z,-0.64
2023-01-17T05:39:22.811Z,-0.65
2023-01-17T05:42:32.378Z,-0.63
2023-01-17T05:45:39.236Z,-0.69
2023-01-17T05:48:46.186Z,-0.66
2023-01-17T05:51:54.781Z,-0.68
2023-01-17T05:55:01.856Z,-0.89
2023-01-17T05:58:15.874Z,-1.01
2023-01-17T06:01:22.924Z,-0.82
2023-01-17T06:04:28.986Z,-0.64
2023-01-17T06:07:37.033Z,-0.51
2023-01-17T06:10:43.303Z,-0.41
2023-01-17T06:13:54.386Z,-0.30
2023-01-17T06:17:00.468Z,-0.33
2023-01-17T06:20:09.574Z,-0.19
2023-01-17T06:23:17.816Z,-0.19
2023-01-17T06:26:24.711Z,-0.14
2023-01-17T06:29:33.421Z,-0.12
2023-01-17T06:32:40.282Z,-0.07
2023-01-17T06:35:52.825Z,-0.12
2023-01-17T06:38:59.698Z,-0.28
2023-01-17T06:42:05.854Z,-0.46
2023-01-17T06:45:15.516Z,-0.53
2023-01-17T06:48:21.667Z,-0.60
2023-01-17T06:51:28.847Z,-0.68
2023-01-17T06:54:35.122Z,-0.76
2023-01-17T06:57:42.051Z,-0.86
2023-01-17T07:00:50.898Z,-0.81
2023-01-17T07:03:58.426Z,-0.67
2023-01-17T07:07:05.129Z,-0.62
2023-01-17T07:10:13.814Z,-0.59
2023-01-17T07:13:20.408Z,-0.57
2023-01-17T07:16:30.286Z,-0.48
2023-01-17T07:19:36.674Z,-0.40
2023-01-17T07:22:48.021Z,-0.35
2023-01-17T07:25:59.601Z,-0.35
2023-01-17T07:29:06.742Z,-0.48
2023-01-17T07:32:15.560Z,-0.42
2023-01-17T07:35:23.201Z,-0.59
2023-01-17T07:38:29.233Z,-0.49
2023-01-17T07:41:41.540Z,-0.35
2023-01-17T07:44:47.641Z,-0.39
2023-01-17T07:48:00.403Z,-0.42
2023-01-17T07:51:06.691Z,-0.45
2023-01-17T07:54:15.352Z,-0.42
2023-01-17T07:57:21.529Z,-0.38
2023-01-17T08:00:29.503Z,-0.39
2023-01-17T08:03:40.355Z,-0.26
2023-01-17T08:06:50.991Z,-0.24
2023-01-17T08:09:57.411Z,-0.17
2023-01-17T08:13:04.507Z,-0.13
2023-01-17T08:16:13.145Z,-0.13
2023-01-17T08:19:23.001Z,-0.26
2023-01-17T08:22:29.125Z,-0.23
2023-01-17T08:25:36.113Z,-0.13
2023-01-17T08:28:42.237Z,-0.19
2023-01-17T08:31:49.348Z,-0.10
2023-01-17T08:34:58.174Z,0.02
2023-01-17T08:38:05.383Z,0.01
2023-01-17T08:41:11.526Z,-0.00
2023-01-17T08:44:20.248Z,0.07
2023-01-17T08:47:28.127Z,0.11
2023-01-17T08:50:37.907Z,0.25
2023-01-17T08:53:44.121Z,0.27
2023-01-17T08:56:53.128Z,0.14
2023-01-17T08:59:59.347Z,0.29
2023-01-17T09:03:11.294Z,0.29
2023-01-17T09:06:20.316Z,0.42
2023-01-17T09:09:27.414Z,0.49
2023-01-17T09:12:37.110Z,0.44
2023-01-17T09:15:44.630Z,0.58
2023-01-17T09:18:50.646Z,0.65
2023-01-17T09:22:00.266Z,0.73
2023-01-17T09:25:06.712Z,0.80
2023-01-17T09:28:14.033Z,0.80
2023-01-17T09:31:21.625Z,0.81
2023-01-17T09:34:28.716Z,0.90
2023-01-17T09:37:37.721Z,0.88
2023-01-17T09:40:50.990Z,0.93
2023-01-17T09:44:08.682Z,0.93
2023-01-17T09:47:34.516Z,1.12
2023-01-17T09:50:53.581Z,1.22
2023-01-17T09:54:03.304Z,1.61
2023-01-17T09:57:32.377Z,1.82
2023-01-17T10:01:04.860Z,2.05
2023-01-17T10:04:34.822Z,2.71
2023-01-17T10:08:03.780Z,3.38
2023-01-17T10:11:37.987Z,4.29
2023-01-17T10:15:29.329Z,4.80
2023-01-17T10:19:13.119Z,4.87
2023-01-17T10:22:52.409Z,4.54
2023-01-17T10:26:06.283Z,4.39
2023-01-17T10:29:22.354Z,4.69
2023-01-17T10:32:37.541Z,5.01
2023-01-17T10:35:58.122Z,5.36
2023-01-17T10:39:17.945Z,5.81
2023-01-17T10:42:34.586Z,6.00
2023-01-17T10:45:54.649Z,6.70
2023-01-17T10:49:02.568Z,6.35
2023-01-17T10:52:28.470Z,6.10
2023-01-17T10:55:48.615Z,6.66
2023-01-17T10:59:20.420Z,6.93
2023-01-17T11:02:40.148Z,6.27
2023-01-17T11:05:47.192Z,6.63
2023-01-17T11:08:57.549Z,6.25
2023-01-17T11:12:03.665Z,6.47
2023-01-17T11:15:26.126Z,6.93
2023-01-17T11:18:40.091Z,7.33
2023-01-17T11:21:58.759Z,7.43
2023-01-17T11:25:05.255Z,7.89
2023-01-17T11:28:30.745Z,8.30
2023-01-17T11:31:36.842Z,9.12
2023-01-17T11:34:46.343Z,8.06
2023-01-17T11:38:06.113Z,7.32
2023-01-17T11:41:23.047Z,7.50
2023-01-17T11:44:32.457Z,7.34
2023-01-17T11:47:39.384Z,7.28
2023-01-17T11:50:58.448Z,7.28
2023-01-17T11:54:24.905Z,7.07
2023-01-17T11:57:35.974Z,7.22
2023-01-17T12:01:00.290Z,7.72
2023-01-17T12:04:31.046Z,7.71
2023-01-17T12:07:54.523Z,8.29
2023-01-17T12:11:16.873Z,7.89
2023-01-17T12:14:40.293Z,6.87
2023-01-17T12:18:19.471Z,7.29
2023-01-17T12:21:48.806Z,7.40
2023-01-17T12:25:43.256Z,7.98
2023-01-17T12:29:39.817Z,7.17
2023-01-17T12:33:12.315Z,7.25
2023-01-17T12:36:41.941Z,7.50
2023-01-17T12:39:59.490Z,7.40
2023-01-17T12:43:22.791Z,7.51
2023-01-17T12:46:40.982Z,6.88
2023-01-17T12:49:59.796Z,7.09
2023-01-17T12:53:29.353Z,6.43
2023-01-17T12:56:44.912Z,6.63
2023-01-17T13:00:05.722Z,6.78
2023-01-17T13:03:27.802Z,6.98
2023-01-17T13:06:54.827Z,7.56
2023-01-17T13:10:32.111Z,7.32
2023-01-17T13:13:41.458Z,6.65
2023-01-17T13:17:00.926Z,6.96
2023-01-17T13:20:22.867Z,7.16
2023-01-17T13:23:43.672Z,6.74
2023-01-17T13:27:16.188Z,7.12
2023-01-17T13:30:43.847Z,7.24
2023-01-17T13:34:38.050Z,6.52
2023-01-17T13:38:45.209Z,5.65
2023-01-17T13:41:57.014Z,5.05
2023-01-17T13:45:17.058Z,4.49
2023-01-17T13:48:33.069Z,4.34
2023-01-17T13:52:14.050Z,4.28
2023-01-17T13:55:49.732Z,3.84
2023-01-17T13:59:05.286Z,3.57
2023-01-17T14:02:40.296Z,3.48
2023-01-17T14:05:58.927Z,3.33
2023-01-17T14:09:19.913Z,3.26
2023-01-17T14:12:44.578Z,3.17
2023-01-17T14:15:55.195Z,3.08
2023-01-17T14:19:02.226Z,3.17
2023-01-17T14:22:29.364Z,3.22
2023-01-17T14:25:45.437Z,3.10
2023-01-17T14:28:52.343Z,3.09
2023-01-17T14:32:07.853Z,2.95
2023-01-17T14:35:26.715Z,2.87
2023-01-17T14:38:37.201Z,2.75
2023-01-17T14:41:47.225Z,2.81
2023-01-17T14:45:03.293Z,2.76
2023-01-17T14:48:19.076Z,2.75
2023-01-17T14:51:26.896Z,2.63
2023-01-17T14:54:33.548Z,2.56
2023-01-17T14:57:43.164Z,2.44
2023-01-17T15:00:52.398Z,2.36
2023-01-17T15:04:01.064Z,2.22
2023-01-17T15:07:07.631Z,2.03
2023-01-17T15:10:20.697Z,1.91
2023-01-17T15:13:44.595Z,1.85
2023-01-17T15:16:53.445Z,1.78
2023-01-17T15:20:09.023Z,1.79
2023-01-17T15:23:22.697Z,1.77
2023-01-17T15:26:43.847Z,1.76
2023-01-17T15:29:57.698Z,1.65
2023-01-17T15:33:04.155Z,1.59
2023-01-17T15:36:24.790Z,1.63
2023-01-17T15:39:35.205Z,1.59
2023-01-17T15:42:49.594Z,1.47
2023-01-17T15:46:02.499Z,1.44
2023-01-17T15:49:20.162Z,1.44
2023-01-17T15:52:26.579Z,1.31
2023-01-17T15:55:37.082Z,1.25
2023-01-17T15:58:43.354Z,1.15
2023-01-17T16:02:00.238Z,1.17
2023-01-17T16:05:38.896Z,1.11
2023-01-17T16:08:55.841Z,1.10
2023-01-17T16:12:01.952Z,1.01
2023-01-17T16:15:13.374Z,0.93
2023-01-17T16:18:27.797Z,0.93
2023-01-17T16:21:35.749Z,0.92
2023-01-17T16:24:41.860Z,0.90
2023-01-17T16:27:49.553Z,0.87
2023-01-17T16:30:56.618Z,1.01
2023-01-17T16:34:06.291Z,1.03
2023-01-17T16:37:14.143Z,1.07
2023-01-17T16:40:22.323Z,1.00
2023-01-17T16:43:28.927Z,1.03
2023-01-17T16:46:38.756Z,0.98
2023-01-17T16:49:48.339Z,0.96
2023-01-17T16:52:57.763Z,0.96
2023-01-17T16:56:14.345Z,0.99
2023-01-17T16:59:21.622Z,1.04
2023-01-17T17:02:27.918Z,0.98
2023-01-17T17:05:38.438Z,0.98
2023-01-17T17:08:44.774Z,0.99
2023-01-17T17:11:51.827Z,1.01
2023-01-17T17:14:58.004Z,1.04
2023-01-17T17:18:05.865Z,0.75
2023-01-17T17:21:15.653Z,0.78
2023-01-17T17:24:22.891Z,0.71
2023-01-17T17:27:29.229Z,0.61
2023-01-17T17:30:36.610Z,0.50
2023-01-17T17:33:42.874Z,0.51
2023-01-17T17:36:52.630Z,0.56
2023-01-17T17:40:00.384Z,0.66
2023-01-17T17:43:07.401Z,0.39
2023-01-17T17:46:13.707Z,0.18
2023-01-17T17:49:22.006Z,0.01
2023-01-17T17:52:32.571Z,-0.17
2023-01-17T17:55:41.206Z,-0.27
2023-01-17T17:58:47.418Z,-0.23
2023-01-17T18:01:54.984Z,-0.27
2023-01-17T18:05:02.584Z,-0.46
2023-01-17T18:08:13.369Z,-0.48
2023-01-17T18:11:22.904Z,-0.52
2023-01-17T18:14:29.977Z,-0.56
2023-01-17T18:17:36.302Z,-0.52
2023-01-17T18:20:43.352Z,-0.40
2023-01-17T18:23:53.972Z,-0.30
2023-01-17T18:27:01.417Z,-0.20
2023-01-17T18:30:09.762Z,-0.11
2023-01-17T18:33:16.902Z,0.00
2023-01-17T18:36:24.200Z,0.20
2023-01-17T18:39:34.367Z,0.51
2023-01-17T18:42:40.713Z,0.58
2023-01-17T18:45:55.193Z,0.66
2023-01-17T18:49:02.370Z,0.81
2023-01-17T18:52:09.706Z,0.91
2023-01-17T18:55:18.685Z,0.85
2023-01-17T18:58:27.664Z,0.97
2023-01-17T19:01:37.499Z,1.07
2023-01-17T19:04:44.605Z,1.21
2023-01-17T19:07:51.192Z,1.15
2023-01-17T19:11:01.183Z,1.25
2023-01-17T19:14:09.057Z,1.25
2023-01-17T19:17:16.023Z,1.31
2023-01-17T19:20:22.325Z,1.33
2023-01-17T19:23:29.411Z,1.32
2023-01-17T19:26:38.384Z,1.24
2023-01-17T19:29:45.424Z,1.10
2023-01-17T19:32:53.982Z,1.10
2023-01-17T19:36:05.977Z,0.99
2023-01-17T19:39:13.115Z,0.93
2023-01-17T19:42:22.989Z,0.85
2023-01-17T19:45:29.291Z,0.82
2023-01-17T19:48:37.275Z,0.72
2023-01-17T19:51:43.918Z,0.70
2023-01-17T19:54:51.053Z,0.75
2023-01-17T19:57:59.752Z,0.84
2023-01-17T20:01:16.238Z,0.86
2023-01-17T20:04:22.506Z,0.91
2023-01-17T20:07:30.016Z,0.89
2023-01-17T20:10:36.347Z,0.92
2023-01-17T20:13:46.756Z,0.97
2023-01-17T20:16:53.897Z,0.73
2023-01-17T20:20:01.020Z,0.45
2023-01-17T20:23:07.343Z,0.13
2023-01-17T20:26:15.805Z,0.09
2023-01-17T20:29:24.927Z,0.02
2023-01-17T20:32:31.986Z,0.16
2023-01-17T20:35:38.143Z,0.19
2023-01-17T20:38:48.420Z,0.27
2023-01-17T20:41:54.600Z,0.32
2023-01-17T20:45:04.556Z,0.44
2023-01-17T20:48:10.888Z,0.41
2023-01-17T20:51:19.844Z,0.52
2023-01-17T20:54:26.484Z,0.55
2023-01-17T20:57:34.518Z,0.67
2023-01-17T21:00:43.320Z,0.66
2023-01-17T21:03:54.178Z,0.61
2023-01-17T21:07:01.083Z,0.56
2023-01-17T21:10:09.677Z,0.70
2023-01-17T21:13:15.978Z,0.67
2023-01-17T21:16:28.264Z,0.58
2023-01-17T21:19:37.374Z,0.59
2023-01-17T21:22:45.207Z,0.48
2023-01-17T21:26:01.460Z,0.34
2023-01-17T21:29:08.498Z,0.30
2023-01-17T21:32:17.492Z,0.32
2023-01-17T21:35:24.501Z,0.35
2023-01-17T21:38:31.617Z,0.38
2023-01-17T21:41:42.638Z,0.43
2023-01-17T21:44:48.813Z,0.50
2023-01-17T21:48:00.719Z,0.51
2023-01-17T21:51:09.109Z,0.53
2023-01-17T21:54:16.300Z,0.52
2023-01-17T21:57:37.280Z,0.54
2023-01-17T22:00:46.252Z,0.64
2023-01-17T22:03:58.373Z,0.75
2023-01-17T22:07:05.293Z,0.84
2023-01-17T22:10:13.382Z,0.88
2023-01-17T22:13:22.038Z,0.81
2023-01-17T22:16:29.164Z,0.73
2023-01-17T22:19:38.606Z,0.66
2023-01-17T22:22:44.649Z,0.54
2023-01-17T22:25:51.845Z,0.73
2023-01-17T22:28:58.247Z,0.83
2023-01-17T22:32:05.161Z,0.74
2023-01-17T22:35:13.989Z,0.71
2023-01-17T22:38:20.843Z,0.71
2023-01-17T22:41:30.172Z,0.84
2023-01-17T22:44:37.019Z,0.72
2023-01-17T22:47:43.642Z,0.70
2023-01-17T22:50:53.208Z,0.75
2023-01-17T22:54:02.855Z,0.74
2023-01-17T22:57:09.775Z,0.63
2023-01-17T23:00:18.024Z,0.61
2023-01-17T23:03:24.904Z,0.56
2023-01-17T23:06:36.276Z,0.60
2023-01-17T23:09:43.228Z,0.62
2023-01-17T23:12:49.859Z,0.59
2023-01-17T23:16:09.147Z,0.59
2023-01-17T23:19:27.787Z,0.44
2023-01-17T23:22:37.921Z,0.39
2023-01-17T23:25:43.885Z,0.39
2023-01-17T23:28:48.189Z,0.39
2023-01-17T23:31:54.130Z,0.35
2023-01-17T23:35:01.036Z,0.35
2023-01-17T23:38:22.788Z,0.33
2023-01-17T23:41:42.113Z,0.29
2023-01-17T23:44:48.224Z,0.27
2023-01-17T23:47:55.536Z,0.22
2023-01-17T23:51:09.837Z,0.22
2023-01-17T23:54:19.498Z,0.22
2023-01-17T23:57:25.513Z,0.13
